sensor_id;sensor_type;location;lat;lon;timestamp;pressure;altitude;pressure_sealevel;temperature
70417;BMP280;57839;51.332;12.410;2024-03-02T00:01:17;99230.75;;;9.46
70417;BMP280;57839;51.332;12.410;2024-03-02T00:03:42;99233.84;;;9.45
70417;BMP280;57839;51.332;12.410;2024-03-02T00:06:08;99231.50;;;9.43
70417;BMP280;57839;51.332;12.410;2024-03-02T00:08:34;99237.63;;;9.44
70417;BMP280;57839;51.332;12.410;2024-03-02T00:11:00;99227.34;;;9.46
70417;BMP280;57839;51.332;12.410;2024-03-02T00:13:27;99229.63;;;9.47
70417;BMP280;57839;51.332;12.410;2024-03-02T00:15:55;99231.19;;;9.48
70417;BMP280;57839;51.332;12.410;2024-03-02T00:18:27;99231.91;;;9.52
70417;BMP280;57839;51.332;12.410;2024-03-02T00:20:55;99230.38;;;9.55
70417;BMP280;57839;51.332;12.410;2024-03-02T00:23:21;99228.47;;;9.55
70417;BMP280;57839;51.332;12.410;2024-03-02T00:25:48;99231.94;;;9.56
70417;BMP280;57839;51.332;12.410;2024-03-02T00:28:21;99226.97;;;9.54
70417;BMP280;57839;51.332;12.410;2024-03-02T00:33:28;99220.47;;;9.52
70417;BMP280;57839;51.332;12.410;2024-03-02T00:35:55;99221.97;;;9.53
70417;BMP280;57839;51.332;12.410;2024-03-02T00:38:21;99215.09;;;9.52
70417;BMP280;57839;51.332;12.410;2024-03-02T00:40:47;99212.81;;;9.54
70417;BMP280;57839;51.332;12.410;2024-03-02T00:45:57;99210.53;;;9.56
70417;BMP280;57839;51.332;12.410;2024-03-02T00:48:22;99205.16;;;9.56
70417;BMP280;57839;51.332;12.410;2024-03-02T00:50:50;99204.81;;;9.57
70417;BMP280;57839;51.332;12.410;2024-03-02T00:53:17;99204.41;;;9.59
70417;BMP280;57839;51.332;12.410;2024-03-02T00:55:44;99204.75;;;9.61
70417;BMP280;57839;51.332;12.410;2024-03-02T00:58:12;99212.44;;;9.63
70417;BMP280;57839;51.332;12.410;2024-03-02T01:00:37;99209.75;;;9.63
70417;BMP280;57839;51.332;12.410;2024-03-02T01:03:03;99206.31;;;9.62
70417;BMP280;57839;51.332;12.410;2024-03-02T01:05:29;99205.94;;;9.64
70417;BMP280;57839;51.332;12.410;2024-03-02T01:07:54;99204.00;;;9.64
70417;BMP280;57839;51.332;12.410;2024-03-02T01:10:19;99207.47;;;9.65
70417;BMP280;57839;51.332;12.410;2024-03-02T01:12:45;99208.63;;;9.64
70417;BMP280;57839;51.332;12.410;2024-03-02T01:15:11;99204.03;;;9.60
70417;BMP280;57839;51.332;12.410;2024-03-02T01:17:36;99210.16;;;9.57
70417;BMP280;57839;51.332;12.410;2024-03-02T01:20:02;99202.88;;;9.54
70417;BMP280;57839;51.332;12.410;2024-03-02T01:22:27;99200.97;;;9.48
70417;BMP280;57839;51.332;12.410;2024-03-02T01:24:53;99201.31;;;9.46
70417;BMP280;57839;51.332;12.410;2024-03-02T01:27:18;99200.16;;;9.44
70417;BMP280;57839;51.332;12.410;2024-03-02T01:29:43;99194.03;;;9.43
70417;BMP280;57839;51.332;12.410;2024-03-02T01:32:09;99203.22;;;9.42
70417;BMP280;57839;51.332;12.410;2024-03-02T01:34:34;99208.59;;;9.39
70417;BMP280;57839;51.332;12.410;2024-03-02T01:36:59;99212.00;;;9.36
70417;BMP280;57839;51.332;12.410;2024-03-02T01:39:25;99203.22;;;9.35
70417;BMP280;57839;51.332;12.410;2024-03-02T01:41:50;99207.78;;;9.35
70417;BMP280;57839;51.332;12.410;2024-03-02T01:44:16;99205.88;;;9.35
70417;BMP280;57839;51.332;12.410;2024-03-02T01:46:42;99210.47;;;9.31
70417;BMP280;57839;51.332;12.410;2024-03-02T01:49:07;99207.06;;;9.31
70417;BMP280;57839;51.332;12.410;2024-03-02T01:51:33;99202.06;;;9.29
70417;BMP280;57839;51.332;12.410;2024-03-02T01:53:59;99205.50;;;9.30
70417;BMP280;57839;51.332;12.410;2024-03-02T01:56:24;99206.66;;;9.29
70417;BMP280;57839;51.332;12.410;2024-03-02T01:58:50;99201.28;;;9.29
70417;BMP280;57839;51.332;12.410;2024-03-02T02:01:15;99209.72;;;9.27
70417;BMP280;57839;51.332;12.410;2024-03-02T02:03:42;99204.75;;;9.22
70417;BMP280;57839;51.332;12.410;2024-03-02T02:06:07;99208.94;;;9.23
70417;BMP280;57839;51.332;12.410;2024-03-02T02:08:33;99205.88;;;9.21
70417;BMP280;57839;51.332;12.410;2024-03-02T02:10:58;99210.84;;;9.19
70417;BMP280;57839;51.332;12.410;2024-03-02T02:13:24;99207.00;;;9.20
70417;BMP280;57839;51.332;12.410;2024-03-02T02:15:49;99205.09;;;9.24
70417;BMP280;57839;51.332;12.410;2024-03-02T02:18:15;99203.97;;;9.25
70417;BMP280;57839;51.332;12.410;2024-03-02T02:20:41;99195.94;;;9.22
70417;BMP280;57839;51.332;12.410;2024-03-02T02:23:06;99196.31;;;9.24
70417;BMP280;57839;51.332;12.410;2024-03-02T02:25:34;99192.13;;;9.23
70417;BMP280;57839;51.332;12.410;2024-03-02T02:28:00;99195.56;;;9.23
70417;BMP280;57839;51.332;12.410;2024-03-02T02:30:26;99192.13;;;9.23
70417;BMP280;57839;51.332;12.410;2024-03-02T02:32:52;99192.88;;;9.23
70417;BMP280;57839;51.332;12.410;2024-03-02T02:35:17;99196.31;;;9.24
70417;BMP280;57839;51.332;12.410;2024-03-02T02:37:43;99202.03;;;9.26
70417;BMP280;57839;51.332;12.410;2024-03-02T02:40:09;99199.38;;;9.26
70417;BMP280;57839;51.332;12.410;2024-03-02T02:42:35;99199.75;;;9.24
70417;BMP280;57839;51.332;12.410;2024-03-02T02:45:00;99199.38;;;9.26
70417;BMP280;57839;51.332;12.410;2024-03-02T02:47:26;99199.00;;;9.27
70417;BMP280;57839;51.332;12.410;2024-03-02T02:49:51;99204.34;;;9.27
70417;BMP280;57839;51.332;12.410;2024-03-02T02:52:16;99202.06;;;9.29
70417;BMP280;57839;51.332;12.410;2024-03-02T02:54:42;99200.53;;;9.28
70417;BMP280;57839;51.332;12.410;2024-03-02T02:57:08;99203.59;;;9.27
70417;BMP280;57839;51.332;12.410;2024-03-02T02:59:35;99189.44;;;9.26
70417;BMP280;57839;51.332;12.410;2024-03-02T03:02:00;99184.84;;;9.27
70417;BMP280;57839;51.332;12.410;2024-03-02T03:04:25;99187.53;;;9.27
70417;BMP280;57839;51.332;12.410;2024-03-02T03:06:51;99190.97;;;9.27
70417;BMP280;57839;51.332;12.410;2024-03-02T03:09:16;99188.31;;;9.27
70417;BMP280;57839;51.332;12.410;2024-03-02T03:11:42;99182.56;;;9.29
70417;BMP280;57839;51.332;12.410;2024-03-02T03:14:07;99181.81;;;9.32
70417;BMP280;57839;51.332;12.410;2024-03-02T03:16:32;99180.28;;;9.27
70417;BMP280;57839;51.332;12.410;2024-03-02T03:18:58;99186.00;;;9.29
70417;BMP280;57839;51.332;12.410;2024-03-02T03:21:23;99186.00;;;9.29
70417;BMP280;57839;51.332;12.410;2024-03-02T03:23:49;99191.34;;;9.33
70417;BMP280;57839;51.332;12.410;2024-03-02T03:26:14;99191.34;;;9.33
70417;BMP280;57839;51.332;12.410;2024-03-02T03:28:40;99196.72;;;9.33
70417;BMP280;57839;51.332;12.410;2024-03-02T03:31:05;99196.72;;;9.33
70417;BMP280;57839;51.332;12.410;2024-03-02T03:33:32;99202.44;;;9.31
70417;BMP280;57839;51.332;12.410;2024-03-02T03:35:57;99210.09;;;9.33
70417;BMP280;57839;51.332;12.410;2024-03-02T03:38:22;99208.97;;;9.30
70417;BMP280;57839;51.332;12.410;2024-03-02T03:40:48;99213.16;;;9.31
70417;BMP280;57839;51.332;12.410;2024-03-02T03:43:13;99220.44;;;9.31
70417;BMP280;57839;51.332;12.410;2024-03-02T03:45:39;99220.44;;;9.31
70417;BMP280;57839;51.332;12.410;2024-03-02T03:48:04;99223.09;;;9.27
70417;BMP280;57839;51.332;12.410;2024-03-02T03:50:29;99226.91;;;9.23
70417;BMP280;57839;51.332;12.410;2024-03-02T03:52:55;99222.69;;;9.25
70417;BMP280;57839;51.332;12.410;2024-03-02T03:55:20;99222.69;;;9.25
70417;BMP280;57839;51.332;12.410;2024-03-02T03:57:46;99231.50;;;9.22
70417;BMP280;57839;51.332;12.410;2024-03-02T04:00:11;99227.66;;;9.20
70417;BMP280;57839;51.332;12.410;2024-03-02T04:02:37;99223.44;;;9.19
70417;BMP280;57839;51.332;12.410;2024-03-02T04:05:03;99226.13;;;9.19
70417;BMP280;57839;51.332;12.410;2024-03-02T04:07:34;99224.22;;;9.19
70417;BMP280;57839;51.332;12.410;2024-03-02T04:10:04;99222.28;;;9.16
70417;BMP280;57839;51.332;12.410;2024-03-02T04:12:30;99217.69;;;9.17
70417;BMP280;57839;51.332;12.410;2024-03-02T04:14:55;99219.63;;;9.16
70417;BMP280;57839;51.332;12.410;2024-03-02T04:17:20;99223.81;;;9.14
70417;BMP280;57839;51.332;12.410;2024-03-02T04:19:45;99224.56;;;9.11
70417;BMP280;57839;51.332;12.410;2024-03-02T04:22:11;99221.50;;;9.09
70417;BMP280;57839;51.332;12.410;2024-03-02T04:24:36;99230.66;;;9.08
70417;BMP280;57839;51.332;12.410;2024-03-02T04:27:02;99231.44;;;9.08
70417;BMP280;57839;51.332;12.410;2024-03-02T04:29:27;99228.75;;;9.08
70417;BMP280;57839;51.332;12.410;2024-03-02T04:31:53;99235.66;;;9.09
70417;BMP280;57839;51.332;12.410;2024-03-02T04:34:18;99235.66;;;9.09
70417;BMP280;57839;51.332;12.410;2024-03-02T04:36:44;99241.00;;;9.09
70417;BMP280;57839;51.332;12.410;2024-03-02T04:39:09;99246.34;;;9.09
70417;BMP280;57839;51.332;12.410;2024-03-02T04:41:35;99244.06;;;9.11
70417;BMP280;57839;51.332;12.410;2024-03-02T04:44:00;99242.94;;;9.12
70417;BMP280;57839;51.332;12.410;2024-03-02T04:46:26;99247.88;;;9.10
70417;BMP280;57839;51.332;12.410;2024-03-02T04:48:51;99250.19;;;9.12
70417;BMP280;57839;51.332;12.410;2024-03-02T04:51:20;99250.19;;;9.12
70417;BMP280;57839;51.332;12.410;2024-03-02T04:53:46;99248.63;;;9.11
70417;BMP280;57839;51.332;12.410;2024-03-02T04:56:11;99248.63;;;9.11
70417;BMP280;57839;51.332;12.410;2024-03-02T04:58:55;99257.00;;;9.06
70417;BMP280;57839;51.332;12.410;2024-03-02T05:01:21;99257.00;;;9.06
70417;BMP280;57839;51.332;12.410;2024-03-02T05:03:47;99249.00;;;9.06
70417;BMP280;57839;51.332;12.410;2024-03-02T05:06:12;99249.00;;;9.06
70417;BMP280;57839;51.332;12.410;2024-03-02T05:08:37;99251.31;;;9.07
70417;BMP280;57839;51.332;12.410;2024-03-02T05:11:03;99251.31;;;9.07
70417;BMP280;57839;51.332;12.410;2024-03-02T05:13:46;99250.16;;;9.08
70417;BMP280;57839;51.332;12.410;2024-03-02T05:16:12;99248.63;;;9.07
70417;BMP280;57839;51.332;12.410;2024-03-02T05:18:37;99257.41;;;9.08
70417;BMP280;57839;51.332;12.410;2024-03-02T05:21:03;99264.28;;;9.02
70417;BMP280;57839;51.332;12.410;2024-03-02T05:23:28;99262.00;;;9.04
70417;BMP280;57839;51.332;12.410;2024-03-02T05:25:54;99261.59;;;9.05
70417;BMP280;57839;51.332;12.410;2024-03-02T05:28:19;99262.75;;;9.08
70417;BMP280;57839;51.332;12.410;2024-03-02T05:30:45;99261.25;;;9.10
70417;BMP280;57839;51.332;12.410;2024-03-02T05:33:11;99277.66;;;9.09
70417;BMP280;57839;51.332;12.410;2024-03-02T05:35:36;99278.81;;;9.08
70417;BMP280;57839;51.332;12.410;2024-03-02T05:38:02;99280.34;;;9.09
70417;BMP280;57839;51.332;12.410;2024-03-02T05:40:27;99278.44;;;9.09
70417;BMP280;57839;51.332;12.410;2024-03-02T05:42:52;99281.13;;;9.09
70417;BMP280;57839;51.332;12.410;2024-03-02T05:45:18;99280.72;;;9.07
70417;BMP280;57839;51.332;12.410;2024-03-02T05:47:43;99279.97;;;9.07
70417;BMP280;57839;51.332;12.410;2024-03-02T05:50:08;99288.38;;;9.09
70417;BMP280;57839;51.332;12.410;2024-03-02T05:52:34;99292.94;;;9.08
70417;BMP280;57839;51.332;12.410;2024-03-02T05:54:59;99292.94;;;9.08
70417;BMP280;57839;51.332;12.410;2024-03-02T05:57:25;99289.91;;;9.10
70417;BMP280;57839;51.332;12.410;2024-03-02T06:00:13;99292.97;;;9.12
70417;BMP280;57839;51.332;12.410;2024-03-02T06:02:42;99293.75;;;9.12
70417;BMP280;57839;51.332;12.410;2024-03-02T06:05:07;99292.22;;;9.11
70417;BMP280;57839;51.332;12.410;2024-03-02T06:07:32;99296.78;;;9.11
70417;BMP280;57839;51.332;12.410;2024-03-02T06:09:58;99307.88;;;9.09
70417;BMP280;57839;51.332;12.410;2024-03-02T06:12:23;99302.91;;;9.11
70417;BMP280;57839;51.332;12.410;2024-03-02T06:14:49;99301.41;;;9.14
70417;BMP280;57839;51.332;12.410;2024-03-02T06:17:14;99304.47;;;9.12
70417;BMP280;57839;51.332;12.410;2024-03-02T06:19:40;99316.28;;;9.15
70417;BMP280;57839;51.332;12.410;2024-03-02T06:22:05;99319.34;;;9.17
70417;BMP280;57839;51.332;12.410;2024-03-02T06:24:31;99316.72;;;9.20
70417;BMP280;57839;51.332;12.410;2024-03-02T06:26:56;99316.72;;;9.20
70417;BMP280;57839;51.332;12.410;2024-03-02T06:29:21;99319.03;;;9.22
70417;BMP280;57839;51.332;12.410;2024-03-02T06:31:47;99308.69;;;9.24
70417;BMP280;57839;51.332;12.410;2024-03-02T06:34:12;99318.66;;;9.27
70417;BMP280;57839;51.332;12.410;2024-03-02T06:36:38;99317.53;;;9.31
70417;BMP280;57839;51.332;12.410;2024-03-02T06:39:03;99313.31;;;9.30
70417;BMP280;57839;51.332;12.410;2024-03-02T06:41:29;99318.28;;;9.35
70417;BMP280;57839;51.332;12.410;2024-03-02T06:43:54;99306.81;;;9.35
70417;BMP280;57839;51.332;12.410;2024-03-02T06:46:27;99309.50;;;9.35
70417;BMP280;57839;51.332;12.410;2024-03-02T06:48:52;99311.81;;;9.36
70417;BMP280;57839;51.332;12.410;2024-03-02T06:51:18;99314.09;;;9.38
70417;BMP280;57839;51.332;12.410;2024-03-02T06:53:43;99322.13;;;9.38
70417;BMP280;57839;51.332;12.410;2024-03-02T06:56:09;99315.25;;;9.40
70417;BMP280;57839;51.332;12.410;2024-03-02T06:58:34;99311.06;;;9.43
70417;BMP280;57839;51.332;12.410;2024-03-02T07:00:59;99314.88;;;9.42
70417;BMP280;57839;51.332;12.410;2024-03-02T07:03:28;99312.97;;;9.42
70417;BMP280;57839;51.332;12.410;2024-03-02T07:05:53;99311.81;;;9.43
70417;BMP280;57839;51.332;12.410;2024-03-02T07:08:19;99316.03;;;9.44
70417;BMP280;57839;51.332;12.410;2024-03-02T07:10:44;99309.16;;;9.47
70417;BMP280;57839;51.332;12.410;2024-03-02T07:13:09;99320.66;;;9.51
70417;BMP280;57839;51.332;12.410;2024-03-02T07:15:35;99317.56;;;9.52
70417;BMP280;57839;51.332;12.410;2024-03-02T07:18:32;99318.75;;;9.58
70417;BMP280;57839;51.332;12.410;2024-03-02T07:21:06;99315.72;;;9.64
70417;BMP280;57839;51.332;12.410;2024-03-02T07:23:32;99317.66;;;9.67
70417;BMP280;57839;51.332;12.410;2024-03-02T07:25:57;99320.72;;;9.72
70417;BMP280;57839;51.332;12.410;2024-03-02T07:28:27;99330.69;;;9.75
70417;BMP280;57839;51.332;12.410;2024-03-02T07:30:59;99330.69;;;9.75
70417;BMP280;57839;51.332;12.410;2024-03-02T07:33:25;99332.19;;;9.80
70417;BMP280;57839;51.332;12.410;2024-03-02T07:35:50;99332.19;;;9.80
70417;BMP280;57839;51.332;12.410;2024-03-02T07:38:16;99332.22;;;9.83
70417;BMP280;57839;51.332;12.410;2024-03-02T07:40:41;99335.28;;;9.85
70417;BMP280;57839;51.332;12.410;2024-03-02T07:43:07;99328.41;;;9.84
70417;BMP280;57839;51.332;12.410;2024-03-02T07:45:32;99328.41;;;9.84
70417;BMP280;57839;51.332;12.410;2024-03-02T07:47:58;99332.22;;;9.87
70417;BMP280;57839;51.332;12.410;2024-03-02T07:50:23;99344.84;;;9.90
70417;BMP280;57839;51.332;12.410;2024-03-02T07:52:48;99346.38;;;9.91
70417;BMP280;57839;51.332;12.410;2024-03-02T07:55:14;99349.06;;;9.91
70417;BMP280;57839;51.332;12.410;2024-03-02T07:57:40;99346.78;;;9.96
70417;BMP280;57839;51.332;12.410;2024-03-02T08:00:05;99352.13;;;10.00
70417;BMP280;57839;51.332;12.410;2024-03-02T08:02:31;99349.44;;;10.03
70417;BMP280;57839;51.332;12.410;2024-03-02T08:04:56;99346.78;;;10.07
70417;BMP280;57839;51.332;12.410;2024-03-02T08:07:22;99354.06;;;10.10
70417;BMP280;57839;51.332;12.410;2024-03-02T08:09:47;99359.78;;;10.12
70417;BMP280;57839;51.332;12.410;2024-03-02T08:12:13;99351.00;;;10.15
70417;BMP280;57839;51.332;12.410;2024-03-02T08:14:38;99360.97;;;10.21
70417;BMP280;57839;51.332;12.410;2024-03-02T08:17:03;99359.44;;;10.24
70417;BMP280;57839;51.332;12.410;2024-03-02T08:19:35;99362.47;;;10.29
70417;BMP280;57839;51.332;12.410;2024-03-02T08:22:00;99351.41;;;10.34
70417;BMP280;57839;51.332;12.410;2024-03-02T08:24:25;99355.22;;;10.37
70417;BMP280;57839;51.332;12.410;2024-03-02T08:26:51;99352.16;;;10.42
70417;BMP280;57839;51.332;12.410;2024-03-02T08:29:16;99356.75;;;10.45
70417;BMP280;57839;51.332;12.410;2024-03-02T08:31:41;99357.91;;;10.51
70417;BMP280;57839;51.332;12.410;2024-03-02T08:34:07;99362.50;;;10.54
70417;BMP280;57839;51.332;12.410;2024-03-02T08:36:32;99367.47;;;10.59
70417;BMP280;57839;51.332;12.410;2024-03-02T08:38:57;99368.25;;;10.63
70417;BMP280;57839;51.332;12.410;2024-03-02T08:41:23;99376.66;;;10.65
70417;BMP280;57839;51.332;12.410;2024-03-02T08:43:48;99380.88;;;10.66
70417;BMP280;57839;51.332;12.410;2024-03-02T08:46:14;99383.94;;;10.68
70417;BMP280;57839;51.332;12.410;2024-03-02T08:48:39;99378.97;;;10.70
70417;BMP280;57839;51.332;12.410;2024-03-02T08:51:05;99386.63;;;10.75
70417;BMP280;57839;51.332;12.410;2024-03-02T08:53:33;99383.94;;;10.79
70417;BMP280;57839;51.332;12.410;2024-03-02T08:55:58;99380.88;;;10.84
70417;BMP280;57839;51.332;12.410;2024-03-02T08:58:24;99380.47;;;10.89
70417;BMP280;57839;51.332;12.410;2024-03-02T09:00:49;99389.28;;;10.96
70417;BMP280;57839;51.332;12.410;2024-03-02T09:03:15;99388.88;;;11.01
70417;BMP280;57839;51.332;12.410;2024-03-02T09:05:41;99384.25;;;11.09
70417;BMP280;57839;51.332;12.410;2024-03-02T09:08:07;99388.06;;;11.15
70417;BMP280;57839;51.332;12.410;2024-03-02T09:10:33;99385.78;;;11.21
70417;BMP280;57839;51.332;12.410;2024-03-02T09:12:58;99389.56;;;11.27
70417;BMP280;57839;51.332;12.410;2024-03-02T09:15:24;99396.88;;;11.30
70417;BMP280;57839;51.332;12.410;2024-03-02T09:17:49;99392.22;;;11.37
70417;BMP280;57839;51.332;12.410;2024-03-02T09:20:14;99397.56;;;11.44
70417;BMP280;57839;51.332;12.410;2024-03-02T09:22:40;99401.00;;;11.52
70417;BMP280;57839;51.332;12.410;2024-03-02T09:25:09;99404.41;;;11.59
70417;BMP280;57839;51.332;12.410;2024-03-02T09:27:38;99397.44;;;11.65
70417;BMP280;57839;51.332;12.410;2024-03-02T09:30:07;99401.25;;;11.71
70417;BMP280;57839;51.332;12.410;2024-03-02T09:32:33;99398.13;;;11.83
70417;BMP280;57839;51.332;12.410;2024-03-02T09:34:58;99401.56;;;11.87
70417;BMP280;57839;51.332;12.410;2024-03-02T09:37:23;99401.56;;;11.87
70417;BMP280;57839;51.332;12.410;2024-03-02T09:39:49;99410.38;;;11.91
70417;BMP280;57839;51.332;12.410;2024-03-02T09:42:14;99406.16;;;11.90
70417;BMP280;57839;51.332;12.410;2024-03-02T09:44:40;99412.28;;;11.95
70417;BMP280;57839;51.332;12.410;2024-03-02T09:47:06;99410.75;;;11.93
70417;BMP280;57839;51.332;12.410;2024-03-02T09:49:32;99412.28;;;11.95
70417;BMP280;57839;51.332;12.410;2024-03-02T09:51:57;99410.31;;;11.99
70417;BMP280;57839;51.332;12.410;2024-03-02T09:54:22;99419.91;;;12.00
70417;BMP280;57839;51.332;12.410;2024-03-02T09:56:48;99416.47;;;11.99
70417;BMP280;57839;51.332;12.410;2024-03-02T09:59:14;99420.69;;;12.00
70417;BMP280;57839;51.332;12.410;2024-03-02T10:04:36;99422.63;;;12.00
70417;BMP280;57839;51.332;12.410;2024-03-02T10:07:11;99410.28;;;12.06
70417;BMP280;57839;51.332;12.410;2024-03-02T10:09:37;99407.94;;;12.15
70417;BMP280;57839;51.332;12.410;2024-03-02T10:12:06;99412.09;;;12.23
70417;BMP280;57839;51.332;12.410;2024-03-02T10:14:32;99407.00;;;12.32
70417;BMP280;57839;51.332;12.410;2024-03-02T10:17:13;99400.81;;;12.42
70417;BMP280;57839;51.332;12.410;2024-03-02T10:19:38;99401.88;;;12.51
70417;BMP280;57839;51.332;12.410;2024-03-02T10:22:05;99407.53;;;12.64
70417;BMP280;57839;51.332;12.410;2024-03-02T10:24:37;99400.88;;;12.75
70417;BMP280;57839;51.332;12.410;2024-03-02T10:27:07;99396.00;;;13.01
70417;BMP280;57839;51.332;12.410;2024-03-02T10:29:33;99402.97;;;13.28
70417;BMP280;57839;51.332;12.410;2024-03-02T10:31:58;99402.97;;;13.28
70417;BMP280;57839;51.332;12.410;2024-03-02T10:34:27;99386.44;;;13.60
70417;BMP280;57839;51.332;12.410;2024-03-02T10:36:52;99386.44;;;13.60
70417;BMP280;57839;51.332;12.410;2024-03-02T10:39:18;99401.22;;;14.25
70417;BMP280;57839;51.332;12.410;2024-03-02T10:41:43;99401.22;;;14.25
70417;BMP280;57839;51.332;12.410;2024-03-02T10:44:09;99386.03;;;14.97
70417;BMP280;57839;51.332;12.410;2024-03-02T10:46:35;99383.94;;;15.24
70417;BMP280;57839;51.332;12.410;2024-03-02T10:49:01;99381.00;;;15.54
70417;BMP280;57839;51.332;12.410;2024-03-02T10:51:27;99384.25;;;15.81
70417;BMP280;57839;51.332;12.410;2024-03-02T10:53:55;99378.19;;;16.22
70417;BMP280;57839;51.332;12.410;2024-03-02T10:56:33;99372.16;;;16.47
70417;BMP280;57839;51.332;12.410;2024-03-02T10:59:03;99374.09;;;16.75
70417;BMP280;57839;51.332;12.410;2024-03-02T11:01:32;99369.81;;;17.02
70417;BMP280;57839;51.332;12.410;2024-03-02T11:03:58;99364.31;;;17.44
70417;BMP280;57839;51.332;12.410;2024-03-02T11:06:23;99367.28;;;18.30
70417;BMP280;57839;51.332;12.410;2024-03-02T11:08:51;99368.31;;;18.97
70417;BMP280;57839;51.332;12.410;2024-03-02T11:11:22;99368.69;;;19.17
70417;BMP280;57839;51.332;12.410;2024-03-02T11:13:50;99363.97;;;19.09
70417;BMP280;57839;51.332;12.410;2024-03-02T11:16:31;99363.34;;;18.96
70417;BMP280;57839;51.332;12.410;2024-03-02T11:19:00;99359.91;;;19.53
70417;BMP280;57839;51.332;12.410;2024-03-02T11:21:26;99362.56;;;20.11
70417;BMP280;57839;51.332;12.410;2024-03-02T11:23:52;99363.41;;;20.53
70417;BMP280;57839;51.332;12.410;2024-03-02T11:28:43;99350.50;;;21.13
70417;BMP280;57839;51.332;12.410;2024-03-02T11:31:08;99360.72;;;21.27
70417;BMP280;57839;51.332;12.410;2024-03-02T11:33:34;99354.97;;;21.25
70417;BMP280;57839;51.332;12.410;2024-03-02T11:35:59;99351.00;;;21.03
70417;BMP280;57839;51.332;12.410;2024-03-02T11:38:27;99348.38;;;21.17
70417;BMP280;57839;51.332;12.410;2024-03-02T11:40:52;99354.88;;;21.11
70417;BMP280;57839;51.332;12.410;2024-03-02T11:43:18;99348.16;;;20.88
70417;BMP280;57839;51.332;12.410;2024-03-02T11:45:44;99348.16;;;20.88
70417;BMP280;57839;51.332;12.410;2024-03-02T11:48:10;99335.28;;;20.89
70417;BMP280;57839;51.332;12.410;2024-03-02T11:50:42;99342.88;;;20.94
70417;BMP280;57839;51.332;12.410;2024-03-02T11:53:11;99350.63;;;20.86
70417;BMP280;57839;51.332;12.410;2024-03-02T11:55:37;99350.63;;;20.86
70417;BMP280;57839;51.332;12.410;2024-03-02T11:58:04;99338.44;;;20.45
70417;BMP280;57839;51.332;12.410;2024-03-02T12:00:30;99338.75;;;20.47
70417;BMP280;57839;51.332;12.410;2024-03-02T12:05:27;99338.56;;;20.60
70417;BMP280;57839;51.332;12.410;2024-03-02T12:07:56;99329.78;;;20.56
70417;BMP280;57839;51.332;12.410;2024-03-02T12:10:22;99332.97;;;20.54
70417;BMP280;57839;51.332;12.410;2024-03-02T12:12:47;99326.47;;;20.61
70417;BMP280;57839;51.332;12.410;2024-03-02T12:15:13;99331.44;;;20.63
70417;BMP280;57839;51.332;12.410;2024-03-02T12:17:38;99328.00;;;20.44
70417;BMP280;57839;51.332;12.410;2024-03-02T12:20:06;99319.41;;;20.36
70417;BMP280;57839;51.332;12.410;2024-03-02T12:22:32;99320.44;;;20.48
70417;BMP280;57839;51.332;12.410;2024-03-02T12:24:57;99313.13;;;20.63
70417;BMP280;57839;51.332;12.410;2024-03-02T12:27:22;99315.88;;;20.54
70417;BMP280;57839;51.332;12.410;2024-03-02T12:29:48;99320.25;;;20.61
70417;BMP280;57839;51.332;12.410;2024-03-02T12:32:13;99316.25;;;20.71
70417;BMP280;57839;51.332;12.410;2024-03-02T12:34:39;99312.47;;;20.77
70417;BMP280;57839;51.332;12.410;2024-03-02T12:37:04;99315.66;;;20.76
70417;BMP280;57839;51.332;12.410;2024-03-02T12:39:30;99319.75;;;20.62
70417;BMP280;57839;51.332;12.410;2024-03-02T12:41:57;99313.03;;;20.48
70417;BMP280;57839;51.332;12.410;2024-03-02T12:44:23;99314.06;;;20.42
70417;BMP280;57839;51.332;12.410;2024-03-02T12:46:48;99320.44;;;20.39
70417;BMP280;57839;51.332;12.410;2024-03-02T12:49:14;99311.34;;;20.42
70417;BMP280;57839;51.332;12.410;2024-03-02T12:51:45;99307.09;;;20.50
70417;BMP280;57839;51.332;12.410;2024-03-02T12:54:16;99309.53;;;20.48
70417;BMP280;57839;51.332;12.410;2024-03-02T12:56:42;99302.44;;;20.32
70417;BMP280;57839;51.332;12.410;2024-03-02T12:59:24;99306.97;;;20.44
70417;BMP280;57839;51.332;12.410;2024-03-02T13:01:54;99302.75;;;20.43
70417;BMP280;57839;51.332;12.410;2024-03-02T13:04:25;99296.66;;;20.48
70417;BMP280;57839;51.332;12.410;2024-03-02T13:06:51;99296.66;;;20.48
70417;BMP280;57839;51.332;12.410;2024-03-02T13:09:17;99290.56;;;20.53
70417;BMP280;57839;51.332;12.410;2024-03-02T13:11:42;99290.56;;;20.53
70417;BMP280;57839;51.332;12.410;2024-03-02T13:14:07;99290.53;;;20.63
70417;BMP280;57839;51.332;12.410;2024-03-02T13:16:38;99284.63;;;20.73
70417;BMP280;57839;51.332;12.410;2024-03-02T13:19:04;99277.72;;;20.87
70417;BMP280;57839;51.332;12.410;2024-03-02T13:21:29;99274.38;;;20.92
70417;BMP280;57839;51.332;12.410;2024-03-02T13:23:54;99274.38;;;20.92
70417;BMP280;57839;51.332;12.410;2024-03-02T13:26:20;99269.88;;;20.80
70417;BMP280;57839;51.332;12.410;2024-03-02T13:28:45;99273.66;;;20.82
70417;BMP280;57839;51.332;12.410;2024-03-02T13:31:11;99270.31;;;20.87
70417;BMP280;57839;51.332;12.410;2024-03-02T13:33:37;99270.31;;;20.87
70417;BMP280;57839;51.332;12.410;2024-03-02T13:36:02;99272.75;;;20.85
70417;BMP280;57839;51.332;12.410;2024-03-02T13:38:28;99272.75;;;20.85
70417;BMP280;57839;51.332;12.410;2024-03-02T13:40:53;99272.31;;;21.10
70417;BMP280;57839;51.332;12.410;2024-03-02T13:43:19;99269.91;;;21.27
70417;BMP280;57839;51.332;12.410;2024-03-02T13:45:45;99275.50;;;21.32
70417;BMP280;57839;51.332;12.410;2024-03-02T13:48:10;99274.88;;;21.37
70417;BMP280;57839;51.332;12.410;2024-03-02T13:50:36;99271.38;;;21.37
70417;BMP280;57839;51.332;12.410;2024-03-02T13:53:01;99272.22;;;21.43
70417;BMP280;57839;51.332;12.410;2024-03-02T13:55:28;99270.31;;;21.34
70417;BMP280;57839;51.332;12.410;2024-03-02T13:57:53;99269.50;;;21.19
70417;BMP280;57839;51.332;12.410;2024-03-02T14:00:19;99269.84;;;21.12
70417;BMP280;57839;51.332;12.410;2024-03-02T14:02:47;99267.25;;;21.18
70417;BMP280;57839;51.332;12.410;2024-03-02T14:05:15;99262.66;;;21.24
70417;BMP280;57839;51.332;12.410;2024-03-02T14:07:41;99266.75;;;21.28
70417;BMP280;57839;51.332;12.410;2024-03-02T14:10:06;99272.03;;;21.32
70417;BMP280;57839;51.332;12.410;2024-03-02T14:12:32;99266.56;;;21.32